createdAt,value
2022-12-22T00:00:21.055Z,100287.38
2022-12-22T00:03:06.515Z,100290.84
2022-12-22T00:05:52.438Z,100285.59
2022-12-22T00:08:38.646Z,100293.47
2022-12-22T00:11:32.167Z,100278.59
2022-12-22T00:14:18.261Z,100276.81
2022-12-22T00:17:05.118Z,100273.28
2022-12-22T00:19:50.898Z,100267.16
2022-12-22T00:22:44.214Z,100273.28
2022-12-22T00:25:35.539Z,100261.91
2022-12-22T00:28:30.383Z,100260.16
2022-12-22T00:31:16.315Z,100257.53
2022-12-22T00:34:02.103Z,100255.75
2022-12-22T00:36:48.256Z,100258.38
2022-12-22T00:39:36.694Z,100242.63
2022-12-22T00:42:22.471Z,100240.88
2022-12-22T00:45:08.317Z,100234.72
2022-12-22T00:47:54.129Z,100228.59
2022-12-22T00:50:46.668Z,100223.31
2022-12-22T00:53:32.320Z,100224.19
2022-12-22T00:56:18.203Z,100217.16
2022-12-22T00:59:03.523Z,100211.06
2022-12-22T01:01:49.348Z,100204.03
2022-12-22T01:04:34.969Z,100200.53
2022-12-22T01:07:20.748Z,100201.41
2022-12-22T01:10:11.555Z,100204.00
2022-12-22T01:12:59.393Z,100193.50
2022-12-22T01:15:47.452Z,100176.88
2022-12-22T01:18:34.129Z,100168.97
2022-12-22T01:21:20.493Z,100169.84
2022-12-22T01:24:06.100Z,100163.72
2022-12-22T01:26:51.648Z,100164.56
2022-12-22T01:29:37.325Z,100164.56
2022-12-22T01:32:23.062Z,100150.53
2022-12-22T01:35:08.778Z,100155.78
2022-12-22T01:37:57.889Z,100151.38
2022-12-22T01:40:44.195Z,100154.03
2022-12-22T01:43:45.804Z,100146.13
2022-12-22T01:47:01.885Z,100146.13
2022-12-22T01:50:02.076Z,100140.00
2022-12-22T01:52:56.833Z,100132.97
2022-12-22T01:55:44.549Z,100140.88
2022-12-22T01:58:45.705Z,100132.97
2022-12-22T02:01:31.503Z,100117.22
2022-12-22T02:04:17.996Z,100116.31
2022-12-22T02:07:05.458Z,100120.69
2022-12-22T02:11:00.307Z,100107.53
2022-12-22T02:14:18.927Z,100098.78
2022-12-22T02:17:15.974Z,100102.38
2022-12-22T02:20:23.235Z,100097.13
2022-12-22T02:23:27.115Z,100091.84
2022-12-22T02:26:25.592Z,100091.81
2022-12-22T02:29:11.739Z,100097.94
2022-12-22T02:31:58.880Z,100093.56
2022-12-22T02:34:44.687Z,100090.09
2022-12-22T02:37:47.913Z,100081.34
2022-12-22T02:40:55.369Z,100082.19
2022-12-22T02:43:58.801Z,100071.69
2022-12-22T02:46:57.790Z,100068.16
2022-12-22T02:50:00.070Z,100061.13
2022-12-22T02:52:53.587Z,100069.91
2022-12-22T02:55:43.364Z,100067.28
2022-12-22T02:58:34.109Z,100062.00
2022-12-22T03:01:23.108Z,100062.84
2022-12-22T03:04:08.739Z,100056.72
2022-12-22T03:06:54.787Z,100058.44
2022-12-22T03:09:40.479Z,100054.06
2022-12-22T03:12:26.495Z,100044.41
2022-12-22T03:15:12.133Z,100041.78
2022-12-22T03:17:57.750Z,100047.06
2022-12-22T03:20:43.445Z,100040.88
2022-12-22T03:23:29.228Z,100037.34
2022-12-22T03:25:56.366Z,100036.47
2022-12-22T03:28:28.983Z,100039.97
2022-12-22T03:31:03.529Z,100036.47
2022-12-22T03:33:31.510Z,100034.72
2022-12-22T03:35:59.704Z,100027.69
2022-12-22T03:38:27.851Z,100025.94
2022-12-22T03:40:55.290Z,100027.69
2022-12-22T03:43:41.239Z,100019.78
2022-12-22T03:46:31.460Z,100027.69
2022-12-22T03:49:10.514Z,100020.66
2022-12-22T03:51:44.364Z,100024.16
2022-12-22T03:54:14.634Z,100023.28
2022-12-22T03:56:42.086Z,100025.91
2022-12-22T03:59:09.548Z,100027.69
2022-12-22T04:01:49.185Z,100013.66
2022-12-22T04:04:18.387Z,100008.38
2022-12-22T04:06:46.006Z,100011.91
2022-12-22T04:09:13.390Z,100013.66
2022-12-22T04:11:59.676Z,100013.63
2022-12-22T04:14:33.428Z,100011.00
2022-12-22T04:17:03.591Z,100007.50
2022-12-22T04:19:31.294Z,100004.88
2022-12-22T04:21:58.546Z,99997.91
2022-12-22T04:24:25.659Z,100000.53
2022-12-22T04:26:53.147Z,99988.28
2022-12-22T04:29:20.128Z,99990.94
2022-12-22T04:31:47.144Z,100002.34
2022-12-22T04:34:14.176Z,100005.00
2022-12-22T04:36:41.139Z,100002.38
2022-12-22T04:39:08.151Z,100003.28
2022-12-22T04:41:35.146Z,100009.44
2022-12-22T04:44:02.223Z,100006.78
2022-12-22T04:46:29.339Z,100012.06
2022-12-22T04:49:00.212Z,100016.44
2022-12-22T04:51:28.729Z,100011.19
2022-12-22T04:53:56.037Z,100010.31
2022-12-22T04:56:23.158Z,100019.94
2022-12-22T04:58:50.182Z,100020.84
2022-12-22T05:01:18.775Z,100019.09
2022-12-22T05:03:46.362Z,100019.97
2022-12-22T05:06:14.330Z,100016.44
2022-12-22T05:08:41.311Z,100015.59
2022-12-22T05:11:08.296Z,100019.97
2022-12-22T05:13:35.476Z,100011.19
2022-12-22T05:16:13.886Z,100019.97
2022-12-22T05:18:42.929Z,100017.34
2022-12-22T05:21:18.810Z,100012.13
2022-12-22T05:23:46.458Z,100008.59
2022-12-22T05:26:15.473Z,100012.09
2022-12-22T05:28:44.983Z,100007.75
2022-12-22T05:31:21.193Z,100003.38
2022-12-22T05:33:49.138Z,100006.91
2022-12-22T05:36:16.562Z,100007.81
2022-12-22T05:38:44.754Z,100011.28
2022-12-22T05:41:11.945Z,100008.72
2022-12-22T05:43:39.367Z,100017.53
2022-12-22T05:46:10.247Z,100028.97
2022-12-22T05:48:39.626Z,100028.13
2022-12-22T05:51:10.770Z,100041.28
2022-12-22T05:53:39.323Z,100039.50
2022-12-22T05:56:08.132Z,100039.50
2022-12-22T05:58:38.447Z,100040.34
2022-12-22T06:01:06.282Z,100044.75
2022-12-22T06:03:33.825Z,100054.34
2022-12-22T06:06:01.031Z,100062.19
2022-12-22T06:08:28.470Z,100065.69
2022-12-22T06:10:58.269Z,100071.81
2022-12-22T06:13:26.650Z,100079.69
2022-12-22T06:15:53.980Z,100084.91
2022-12-22T06:18:21.067Z,100090.16
2022-12-22T06:20:51.093Z,100092.78
2022-12-22T06:23:18.095Z,100098.00
2022-12-22T06:25:58.801Z,100108.50
2022-12-22T06:28:26.605Z,100110.25
2022-12-22T06:30:55.047Z,100117.25
2022-12-22T06:33:22.377Z,100120.72
2022-12-22T06:35:53.989Z,100134.78
2022-12-22T06:38:26.400Z,100133.88
2022-12-22T06:40:53.392Z,100136.50
2022-12-22T06:43:20.530Z,100140.91
2022-12-22T06:45:47.509Z,100147.03
2022-12-22T06:48:14.916Z,100143.53
2022-12-22T06:50:43.337Z,100151.44
2022-12-22T06:53:11.504Z,100148.78
2022-12-22T06:55:39.236Z,100161.06
2022-12-22T06:58:06.842Z,100154.94
2022-12-22T07:00:34.975Z,100156.69
2022-12-22T07:03:02.079Z,100161.09
2022-12-22T07:05:32.535Z,100171.59
2022-12-22T07:08:05.723Z,100174.25
2022-12-22T07:10:54.252Z,100190.00
2022-12-22T07:13:21.365Z,100198.78
2022-12-22T07:15:57.274Z,100207.53
2022-12-22T07:18:28.379Z,100224.16
2022-12-22T07:20:55.622Z,100223.31
2022-12-22T07:23:22.952Z,100231.19
2022-12-22T07:25:50.068Z,100225.06
2022-12-22T07:28:21.039Z,100233.81
2022-12-22T07:30:50.492Z,100228.56
2022-12-22T07:33:18.301Z,100229.44
2022-12-22T07:35:46.740Z,100226.81
2022-12-22T07:38:13.954Z,100234.69
2022-12-22T07:40:42.653Z,100234.69
2022-12-22T07:43:10.930Z,100226.81
2022-12-22T07:45:38.372Z,100243.47
2022-12-22T07:48:25.719Z,100243.47
2022-12-22T07:51:04.238Z,100240.84
2022-12-22T07:53:32.420Z,100235.59
2022-12-22T07:56:03.550Z,100239.09
2022-12-22T07:58:30.764Z,100255.75
2022-12-22T08:01:02.100Z,100262.75
2022-12-22T08:03:29.290Z,100271.50
2022-12-22T08:05:56.435Z,100282.91
2022-12-22T08:08:23.478Z,100285.53
2022-12-22T08:10:50.507Z,100295.13
2022-12-22T08:13:17.590Z,100302.16
2022-12-22T08:15:44.637Z,100303.88
2022-12-22T08:18:12.274Z,100317.03
2022-12-22T08:20:39.517Z,100321.41
2022-12-22T08:23:07.007Z,100324.03
2022-12-22T08:25:35.159Z,100334.53
2022-12-22T08:28:03.225Z,100344.16
2022-12-22T08:30:30.494Z,100342.44
2022-12-22T08:32:57.611Z,100342.44
2022-12-22T08:35:24.801Z,100345.91
2022-12-22T08:37:53.212Z,100354.63
2022-12-22T08:40:28.365Z,100366.88
2022-12-22T08:43:09.340Z,100368.59
2022-12-22T08:45:36.420Z,100378.19
2022-12-22T08:48:03.631Z,100380.78
2022-12-22T08:50:30.646Z,100391.28
2022-12-22T08:53:14.587Z,100403.53
2022-12-22T08:55:55.774Z,100410.56
2022-12-22T08:58:23.324Z,100429.00
2022-12-22T09:00:50.395Z,100420.28
2022-12-22T09:03:17.510Z,100426.41
2022-12-22T09:05:44.530Z,100420.34
2022-12-22T09:08:11.653Z,100429.16
2022-12-22T09:10:43.986Z,100437.06
2022-12-22T09:13:11.105Z,100433.56
2022-12-22T09:15:38.389Z,100435.34
2022-12-22T09:18:05.406Z,100428.34
2022-12-22T09:20:32.562Z,100427.50
2022-12-22T09:23:00.861Z,100426.59
2022-12-22T09:25:28.373Z,100428.38
2022-12-22T09:27:55.605Z,100434.50
2022-12-22T09:30:22.651Z,100435.38
2022-12-22T09:32:49.738Z,100451.16
2022-12-22T09:35:16.831Z,100439.78
2022-12-22T09:37:43.869Z,100445.88
2022-12-22T09:40:12.013Z,100454.66
2022-12-22T09:42:39.181Z,100453.75
2022-12-22T09:45:17.010Z,100455.44
2022-12-22T09:47:46.717Z,100467.72
2022-12-22T09:50:17.506Z,100468.56
2022-12-22T09:53:04.593Z,100475.53
2022-12-22T09:55:46.488Z,100478.16
2022-12-22T09:58:34.777Z,100483.41
2022-12-22T10:01:38.275Z,100486.00
2022-12-22T10:04:51.547Z,100481.63
2022-12-22T10:07:36.597Z,100478.94
2022-12-22T10:10:25.559Z,100486.84
2022-12-22T10:12:56.996Z,100493.84
2022-12-22T10:15:25.227Z,100500.75
2022-12-22T10:18:16.812Z,100498.06
2022-12-22T10:21:04.302Z,100507.66
2022-12-22T10:23:35.474Z,100504.09
2022-12-22T10:29:12.560Z,100508.53
2022-12-22T10:32:01.721Z,100498.88
2022-12-22T10:34:29.805Z,100501.53
2022-12-22T10:37:02.731Z,100499.72
2022-12-22T10:39:34.734Z,100508.47
2022-12-22T10:42:14.568Z,100516.44
2022-12-22T10:44:48.210Z,100513.00
2022-12-22T10:47:23.903Z,100513.03
2022-12-22T10:52:32.025Z,100520.09
2022-12-22T10:55:22.209Z,100520.97
2022-12-22T10:57:50.422Z,100523.63
2022-12-22T11:00:23.739Z,100528.88
2022-12-22T11:03:19.057Z,100525.41
2022-12-22T11:05:51.643Z,100528.00
2022-12-22T11:08:20.535Z,100528.88
2022-12-22T11:11:07.239Z,100527.13
2022-12-22T11:14:02.445Z,100526.28
2022-12-22T11:16:36.672Z,100531.56
2022-12-22T11:19:36.849Z,100533.31
2022-12-22T11:22:48.314Z,100535.06
2022-12-22T11:25:56.641Z,100538.50
2022-12-22T11:28:40.016Z,100545.47
2022-12-22T11:31:34.701Z,100542.81
2022-12-22T11:34:38.621Z,100541.84
2022-12-22T11:37:45.445Z,100545.34
2022-12-22T11:40:32.479Z,100548.84
2022-12-22T11:43:27.960Z,100553.13
2022-12-22T11:47:04.271Z,100550.50
2022-12-22T11:50:57.694Z,100554.91
2022-12-22T11:53:32.122Z,100547.03
2022-12-22T11:56:26.636Z,100551.41
2022-12-22T11:59:33.681Z,100540.81
2022-12-22T12:02:28.499Z,100540.84
2022-12-22T12:05:50.115Z,100544.41
2022-12-22T12:08:38.683Z,100526.09
2022-12-22T12:11:42.307Z,100526.06
2022-12-22T12:14:58.752Z,100519.03
2022-12-22T12:17:37.442Z,100518.09
2022-12-22T12:20:25.664Z,100514.53
2022-12-22T12:23:34.996Z,100504.84
2022-12-22T12:26:31.192Z,100500.41
2022-12-22T12:29:10.030Z,100501.31
2022-12-22T12:32:09.905Z,100498.59
2022-12-22T12:34:44.385Z,100489.84
2022-12-22T12:37:26.880Z,100488.97
2022-12-22T12:40:53.502Z,100489.88
2022-12-22T12:43:22.281Z,100480.16
2022-12-22T12:45:50.203Z,100490.81
2022-12-22T12:48:26.042Z,100487.41
2022-12-22T12:50:58.312Z,100487.47
2022-12-22T12:53:30.069Z,100487.44
2022-12-22T12:56:02.538Z,100485.59
2022-12-22T12:58:35.666Z,100490.75
2022-12-22T13:01:34.308Z,100470.50
2022-12-22T13:04:04.243Z,100475.66
2022-12-22T13:06:58.204Z,100481.91
2022-12-22T13:09:49.881Z,100478.44
2022-12-22T13:12:54.666Z,100483.75
2022-12-22T13:15:42.128Z,100492.66
2022-12-22T13:18:28.452Z,100487.47
2022-12-22T13:21:18.789Z,100491.91
2022-12-22T13:24:23.370Z,100490.19
2022-12-22T13:26:47.412Z,100495.50
2022-12-22T13:29:28.881Z,100498.13
2022-12-22T13:31:56.016Z,100499.03
2022-12-22T13:34:57.258Z,100489.34
2022-12-22T13:37:28.705Z,100484.97
2022-12-22T13:40:20.132Z,100485.78
2022-12-22T13:43:20.699Z,100473.53
2022-12-22T13:45:57.601Z,100470.88
2022-12-22T13:48:44.289Z,100465.63
2022-12-22T13:51:20.886Z,100462.97
2022-12-22T13:54:33.238Z,100461.19
2022-12-22T13:57:02.817Z,100460.34
2022-12-22T13:59:45.495Z,100454.25
2022-12-22T14:02:12.672Z,100451.66
2022-12-22T14:04:44.209Z,100451.66
2022-12-22T14:07:18.468Z,100439.41
2022-12-22T14:09:51.292Z,100436.81
2022-12-22T14:12:30.750Z,100428.13
2022-12-22T14:15:03.057Z,100436.97
2022-12-22T14:17:37.874Z,100435.25
2022-12-22T14:20:32.504Z,100435.25
2022-12-22T14:23:17.217Z,100429.19
2022-12-22T14:25:46.565Z,100427.44
2022-12-22T14:28:24.677Z,100422.19
2022-12-22T14:30:57.214Z,100410.84
2022-12-22T14:33:26.350Z,100411.69
2022-12-22T14:36:18.438Z,100410.84
2022-12-22T14:38:50.103Z,100411.72
2022-12-22T14:41:52.041Z,100403.84
2022-12-22T14:44:44.868Z,100395.09
2022-12-22T14:47:17.907Z,100389.84
2022-12-22T14:49:54.348Z,100388.97
2022-12-22T14:52:51.145Z,100388.09
2022-12-22T14:55:36.061Z,100382.88
2022-12-22T14:58:31.273Z,100372.34
2022-12-22T15:01:30.731Z,100378.47
2022-12-22T15:04:18.587Z,100382.88
2022-12-22T15:06:48.634Z,100382.00
2022-12-22T15:09:15.518Z,100377.63
2022-12-22T15:11:49.608Z,100373.25
2022-12-22T15:14:26.419Z,100374.97
2022-12-22T15:17:01.700Z,100375.88
2022-12-22T15:19:35.896Z,100366.25
2022-12-22T15:22:03.110Z,100364.50
2022-12-22T15:24:30.315Z,100362.78
2022-12-22T15:26:57.619Z,100362.75
2022-12-22T15:29:24.736Z,100372.38
2022-12-22T15:31:52.284Z,100364.53
2022-12-22T15:34:29.264Z,100364.53
2022-12-22T15:36:56.462Z,100364.53
2022-12-22T15:39:29.267Z,100353.13
2022-12-22T15:41:56.299Z,100348.78
2022-12-22T15:44:23.421Z,100343.53
2022-12-22T15:46:57.805Z,100339.16
2022-12-22T15:49:30.713Z,100340.03
2022-12-22T15:52:02.591Z,100340.03
2022-12-22T15:54:33.079Z,100335.66
2022-12-22T15:57:01.110Z,100344.41
2022-12-22T15:59:29.637Z,100334.78
2022-12-22T16:02:02.752Z,100329.53
2022-12-22T16:04:31.443Z,100327.75
2022-12-22T16:07:10.679Z,100321.63
2022-12-22T16:09:46.367Z,100313.75
2022-12-22T16:12:27.353Z,100312.84
2022-12-22T16:14:59.177Z,100309.38
2022-12-22T16:17:29.809Z,100301.50
2022-12-22T16:19:57.150Z,100298.88
2022-12-22T16:22:33.662Z,100301.47
2022-12-22T16:25:05.369Z,100284.84
2022-12-22T16:27:32.744Z,100289.22
2022-12-22T16:29:59.702Z,100285.72
2022-12-22T16:32:31.317Z,100274.34
2022-12-22T16:35:12.789Z,100276.97
2022-12-22T16:37:40.013Z,100274.31
2022-12-22T16:40:09.209Z,100268.19
2022-12-22T16:45:27.010Z,100269.06
2022-12-22T16:47:55.665Z,100264.66
2022-12-22T16:50:32.229Z,100262.06
2022-12-22T16:53:06.401Z,100255.88
2022-12-22T16:55:35.872Z,100249.75
2022-12-22T16:58:12.104Z,100250.63
2022-12-22T17:00:43.965Z,100244.47
2022-12-22T17:03:28.671Z,100247.97
2022-12-22T17:06:01.611Z,100246.25
2022-12-22T17:08:34.344Z,100248.81
2022-12-22T17:11:10.401Z,100237.44
2022-12-22T17:13:38.765Z,100225.13
2022-12-22T17:16:05.963Z,100225.97
2022-12-22T17:18:34.732Z,100224.22
2022-12-22T17:21:01.789Z,100222.44
2022-12-22T17:24:04.313Z,100228.53
2022-12-22T17:26:34.352Z,100223.28
2022-12-22T17:29:01.601Z,100220.63
2022-12-22T17:31:29.212Z,100217.13
2022-12-22T17:34:00.243Z,100216.22
2022-12-22T17:36:39.720Z,100211.81
2022-12-22T17:39:16.543Z,100197.78
2022-12-22T17:41:43.914Z,100207.41
2022-12-22T17:44:23.711Z,100198.63
2022-12-22T17:46:52.370Z,100192.50
2022-12-22T17:49:22.325Z,100186.34
2022-12-22T17:51:50.284Z,100182.81
2022-12-22T17:54:28.053Z,100181.91
2022-12-22T17:57:03.764Z,100185.44
2022-12-22T17:59:31.265Z,100179.28
2022-12-22T18:01:58.983Z,100186.28
2022-12-22T18:04:26.239Z,100186.25
2022-12-22T18:06:53.905Z,100192.38
2022-12-22T18:09:24.379Z,100178.34
2022-12-22T18:11:52.117Z,100184.47
2022-12-22T18:14:24.707Z,100185.34
2022-12-22T18:16:51.861Z,100187.97
2022-12-22T18:19:19.074Z,100186.19
2022-12-22T18:21:46.340Z,100178.28
2022-12-22T18:24:18.912Z,100178.28
2022-12-22T18:26:47.315Z,100174.78
2022-12-22T18:29:18.935Z,100167.72
2022-12-22T18:31:46.563Z,100168.63
2022-12-22T18:34:13.750Z,100168.63
2022-12-22T18:36:42.836Z,100158.94
2022-12-22T18:39:20.184Z,100159.81
2022-12-22T18:41:47.912Z,100168.56
2022-12-22T18:44:19.749Z,100168.53
2022-12-22T18:46:47.698Z,100172.03
2022-12-22T18:49:15.449Z,100168.53
2022-12-22T18:51:44.623Z,100159.75
2022-12-22T18:54:31.318Z,100157.09
2022-12-22T18:56:58.512Z,100152.69
2022-12-22T18:59:31.390Z,100154.47
2022-12-22T19:02:32.533Z,100151.78
2022-12-22T19:04:59.656Z,100158.81
2022-12-22T19:07:26.869Z,100163.19
2022-12-22T19:09:53.958Z,100165.81
2022-12-22T19:12:23.284Z,100163.19
2022-12-22T19:14:57.283Z,100166.69
2022-12-22T19:17:27.887Z,100162.28
2022-12-22T19:19:55.840Z,100167.56
2022-12-22T19:22:22.842Z,100162.22
2022-12-22T19:24:51.536Z,100166.63
2022-12-22T19:27:27.813Z,100177.13
2022-12-22T19:30:03.476Z,100181.53
2022-12-22T19:32:42.144Z,100180.66
2022-12-22T19:35:22.339Z,100178.03
2022-12-22T19:37:52.096Z,100182.38
2022-12-22T19:40:24.759Z,100169.22
2022-12-22T19:42:55.459Z,100172.75
2022-12-22T19:45:28.156Z,100169.22
2022-12-22T19:47:57.279Z,100171.00
2022-12-22T19:50:27.311Z,100178.03
2022-12-22T19:52:56.062Z,100173.63
2022-12-22T19:55:27.281Z,100180.63
2022-12-22T19:57:55.190Z,100176.25
2022-12-22T20:00:26.041Z,100174.50
2022-12-22T20:02:56.774Z,100177.13
2022-12-22T20:05:23.725Z,100185.00
2022-12-22T20:07:53.149Z,100175.38
2022-12-22T20:10:21.046Z,100179.78
2022-12-22T20:12:51.812Z,100178.91
2022-12-22T20:15:23.281Z,100180.63
2022-12-22T20:17:53.628Z,100171.00
2022-12-22T20:20:36.623Z,100167.50
2022-12-22T20:23:24.775Z,100157.84
2022-12-22T20:26:05.335Z,100159.63
2022-12-22T20:28:38.347Z,100159.66
2022-12-22T20:31:08.068Z,100153.53
2022-12-22T20:33:36.433Z,100157.94
2022-12-22T20:36:11.471Z,100162.31
2022-12-22T20:38:41.893Z,100166.72
2022-12-22T20:41:10.564Z,100165.81
2022-12-22T20:43:39.116Z,100166.72
2022-12-22T20:46:28.505Z,100178.09
2022-12-22T20:49:04.479Z,100172.00
2022-12-22T20:51:34.143Z,100172.88
2022-12-22T20:54:01.944Z,100181.63
2022-12-22T20:56:39.192Z,100178.13
2022-12-22T20:59:22.485Z,100176.38
2022-12-22T21:01:52.556Z,100175.50
2022-12-22T21:04:20.158Z,100170.25
2022-12-22T21:06:56.426Z,100179.00
2022-12-22T21:09:25.865Z,100172.03
2022-12-22T21:11:53.062Z,100169.41
2022-12-22T21:14:20.568Z,100167.66
2022-12-22T21:16:49.160Z,100164.19
2022-12-22T21:19:18.628Z,100160.69
2022-12-22T21:21:46.445Z,100160.69
2022-12-22T21:24:13.817Z,100163.34
2022-12-22T21:26:50.867Z,100165.13
2022-12-22T21:29:23.568Z,100167.75
2022-12-22T21:31:53.236Z,100166.88
2022-12-22T21:34:20.986Z,100162.50
2022-12-22T21:36:56.545Z,100163.34
2022-12-22T21:39:39.410Z,100165.09
2022-12-22T21:42:07.707Z,100160.69
2022-12-22T21:44:35.972Z,100158.94
2022-12-22T21:47:03.537Z,100154.53
2022-12-22T21:49:33.042Z,100162.41
2022-12-22T21:52:00.482Z,100161.50
2022-12-22T21:54:28.016Z,100165.03
2022-12-22T21:56:55.503Z,100166.75
2022-12-22T21:59:23.102Z,100168.50
2022-12-22T22:01:53.045Z,100163.25
2022-12-22T22:04:22.411Z,100170.25
2022-12-22T22:06:49.497Z,100160.66
2022-12-22T22:09:16.559Z,100167.69
2022-12-22T22:12:06.824Z,100165.94
2022-12-22T22:14:33.858Z,100169.44
2022-12-22T22:17:00.917Z,100172.94
2022-12-22T22:19:27.958Z,100172.94
2022-12-22T22:21:54.986Z,100170.31
2022-12-22T22:24:21.918Z,100172.03
2022-12-22T22:26:51.633Z,100172.91
2022-12-22T22:29:18.918Z,100178.16
2022-12-22T22:31:46.021Z,100180.75
2022-12-22T22:34:13.128Z,100182.50
2022-12-22T22:36:40.079Z,100187.75
2022-12-22T22:39:07.255Z,100184.25
2022-12-22T22:41:41.051Z,100182.50
2022-12-22T22:44:10.068Z,100179.88
2022-12-22T22:46:37.187Z,100183.38
2022-12-22T22:49:07.278Z,100185.13
2022-12-22T22:51:34.400Z,100186.88
2022-12-22T22:54:01.371Z,100187.72
2022-12-22T22:56:28.469Z,100186.81
2022-12-22T22:58:55.565Z,100188.56
2022-12-22T23:01:22.608Z,100185.94
2022-12-22T23:03:49.673Z,100185.91
2022-12-22T23:06:16.787Z,100186.78
2022-12-22T23:08:43.879Z,100185.91
2022-12-22T23:11:16.465Z,100184.16
2022-12-22T23:13:44.126Z,100188.56
2022-12-22T23:16:11.280Z,100191.19
2022-12-22T23:18:38.591Z,100186.78
2022-12-22T23:21:08.058Z,100188.56
2022-12-22T23:23:36.043Z,100190.28
2022-12-22T23:26:03.187Z,100187.66
2022-12-22T23:28:30.188Z,100190.28
2022-12-22T23:30:57.229Z,100186.78
2022-12-22T23:33:24.496Z,100191.19
2022-12-22T23:35:52.081Z,100199.91
2022-12-22T23:38:21.045Z,100187.66
2022-12-22T23:40:53.951Z,100189.41
2022-12-22T23:43:21.830Z,100194.66
2022-12-22T23:45:48.863Z,100195.56
2022-12-22T23:48:15.853Z,100186.75
2022-12-22T23:50:47.084Z,100188.53
2022-12-22T23:53:15.369Z,100191.13
2022-12-22T23:55:47.208Z,100190.28
2022-12-22T23:58:15.420Z,100192.03
